sensor_id;sensor_type;location;lat;lon;timestamp;P1;durP1;ratioP1;P2;durP2;ratioP2
66702;SDS011;60933;46.398;-63.798;2022-12-29T00:04:20;0.70;;;0.30;;
66702;SDS011;60933;46.398;-63.798;2022-12-29T00:06:47;2.30;;;0.60;;
66702;SDS011;60933;46.398;-63.798;2022-12-29T00:09:13;0.43;;;0.28;;
66702;SDS011;60933;46.398;-63.798;2022-12-29T00:11:41;0.60;;;0.20;;
66702;SDS011;60933;46.398;-63.798;2022-12-29T00:14:08;0.60;;;0.45;;
66702;SDS011;60933;46.398;-63.798;2022-12-29T00:16:56;0.20;;;0.20;;
66702;SDS011;60933;46.398;-63.798;2022-12-29T00:19:23;0.90;;;0.30;;
66702;SDS011;60933;46.398;-63.798;2022-12-29T00:22:14;0.57;;;0.32;;
66702;SDS011;60933;46.398;-63.798;2022-12-29T00:24:58;3.05;;;0.73;;
66702;SDS011;60933;46.398;-63.798;2022-12-29T00:27:43;2.15;;;0.63;;
66702;SDS011;60933;46.398;-63.798;2022-12-29T00:30:27;2.50;;;0.50;;
66702;SDS011;60933;46.398;-63.798;2022-12-29T00:36:02;3.33;;;0.47;;
66702;SDS011;60933;46.398;-63.798;2022-12-29T00:38:36;3.60;;;0.40;;
66702;SDS011;60933;46.398;-63.798;2022-12-29T00:41:26;0.35;;;0.10;;
66702;SDS011;60933;46.398;-63.798;2022-12-29T00:44:12;1.30;;;0.43;;
66702;SDS011;60933;46.398;-63.798;2022-12-29T00:46:39;0.63;;;0.52;;
66702;SDS011;60933;46.398;-63.798;2022-12-29T00:49:07;0.13;;;0.13;;
66702;SDS011;60933;46.398;-63.798;2022-12-29T00:51:54;1.58;;;0.38;;
66702;SDS011;60933;46.398;-63.798;2022-12-29T00:54:21;0.13;;;0.10;;
66702;SDS011;60933;46.398;-63.798;2022-12-29T00:56:47;1.17;;;0.17;;
66702;SDS011;60933;46.398;-63.798;2022-12-29T00:59:14;1.85;;;0.40;;
66702;SDS011;60933;46.398;-63.798;2022-12-29T01:01:41;0.35;;;0.32;;
66702;SDS011;60933;46.398;-63.798;2022-12-29T01:04:07;1.88;;;0.30;;
66702;SDS011;60933;46.398;-63.798;2022-12-29T01:06:35;1.10;;;0.30;;
66702;SDS011;60933;46.398;-63.798;2022-12-29T01:09:05;0.85;;;0.43;;
66702;SDS011;60933;46.398;-63.798;2022-12-29T01:11:51;1.10;;;0.50;;
66702;SDS011;60933;46.398;-63.798;2022-12-29T01:14:18;0.80;;;0.30;;
66702;SDS011;60933;46.398;-63.798;2022-12-29T01:16:44;0.50;;;0.22;;
66702;SDS011;60933;46.398;-63.798;2022-12-29T01:19:12;1.80;;;0.22;;
66702;SDS011;60933;46.398;-63.798;2022-12-29T01:21:39;0.80;;;0.20;;
66702;SDS011;60933;46.398;-63.798;2022-12-29T01:26:31;0.80;;;0.40;;
66702;SDS011;60933;46.398;-63.798;2022-12-29T01:31:23;0.47;;;0.10;;
66702;SDS011;60933;46.398;-63.798;2022-12-29T01:33:49;1.98;;;0.25;;
66702;SDS011;60933;46.398;-63.798;2022-12-29T01:36:15;2.85;;;0.20;;
66702;SDS011;60933;46.398;-63.798;2022-12-29T01:38:42;0.75;;;0.20;;
66702;SDS011;60933;46.398;-63.798;2022-12-29T01:41:09;2.15;;;0.20;;
66702;SDS011;60933;46.398;-63.798;2022-12-29T01:43:40;0.70;;;0.25;;
66702;SDS011;60933;46.398;-63.798;2022-12-29T01:48:59;1.17;;;0.47;;
66702;SDS011;60933;46.398;-63.798;2022-12-29T01:51:28;0.30;;;0.30;;
66702;SDS011;60933;46.398;-63.798;2022-12-29T01:53:57;1.65;;;0.50;;
66702;SDS011;60933;46.398;-63.798;2022-12-29T01:56:25;1.10;;;0.30;;
66702;SDS011;60933;46.398;-63.798;2022-12-29T01:58:55;0.32;;;0.30;;
66702;SDS011;60933;46.398;-63.798;2022-12-29T02:01:29;0.45;;;0.20;;
66702;SDS011;60933;46.398;-63.798;2022-12-29T02:06:22;0.77;;;0.40;;
66702;SDS011;60933;46.398;-63.798;2022-12-29T02:09:09;1.63;;;0.50;;
66702;SDS011;60933;46.398;-63.798;2022-12-29T02:11:35;2.03;;;0.28;;
66702;SDS011;60933;46.398;-63.798;2022-12-29T02:14:10;1.10;;;0.45;;
66702;SDS011;60933;46.398;-63.798;2022-12-29T02:16:40;0.32;;;0.25;;
66702;SDS011;60933;46.398;-63.798;2022-12-29T02:19:35;1.73;;;0.82;;
66702;SDS011;60933;46.398;-63.798;2022-12-29T02:22:10;0.85;;;0.55;;
66702;SDS011;60933;46.398;-63.798;2022-12-29T02:30:52;1.55;;;0.50;;
66702;SDS011;60933;46.398;-63.798;2022-12-29T02:39:21;0.60;;;0.30;;
66702;SDS011;60933;46.398;-63.798;2022-12-29T02:41:54;0.93;;;0.43;;
66702;SDS011;60933;46.398;-63.798;2022-12-29T02:44:44;3.05;;;0.50;;
66702;SDS011;60933;46.398;-63.798;2022-12-29T02:47:16;0.70;;;0.30;;
66702;SDS011;60933;46.398;-63.798;2022-12-29T02:50:03;1.58;;;0.47;;
66702;SDS011;60933;46.398;-63.798;2022-12-29T02:52:45;1.38;;;0.60;;
66702;SDS011;60933;46.398;-63.798;2022-12-29T02:55:15;1.05;;;0.95;;
66702;SDS011;60933;46.398;-63.798;2022-12-29T03:00:12;0.80;;;0.50;;
66702;SDS011;60933;46.398;-63.798;2022-12-29T03:05:36;2.47;;;0.80;;
66702;SDS011;60933;46.398;-63.798;2022-12-29T03:11:15;1.25;;;0.30;;
66702;SDS011;60933;46.398;-63.798;2022-12-29T03:17:10;1.23;;;0.40;;
66702;SDS011;60933;46.398;-63.798;2022-12-29T03:20:08;1.85;;;0.50;;
66702;SDS011;60933;46.398;-63.798;2022-12-29T03:22:41;1.98;;;0.65;;
66702;SDS011;60933;46.398;-63.798;2022-12-29T03:25:22;1.27;;;0.40;;
66702;SDS011;60933;46.398;-63.798;2022-12-29T03:28:13;3.08;;;0.88;;
66702;SDS011;60933;46.398;-63.798;2022-12-29T03:30:41;0.70;;;0.38;;
66702;SDS011;60933;46.398;-63.798;2022-12-29T03:33:09;0.50;;;0.25;;
66702;SDS011;60933;46.398;-63.798;2022-12-29T03:35:38;2.75;;;0.60;;
66702;SDS011;60933;46.398;-63.798;2022-12-29T03:38:09;1.38;;;0.38;;
66702;SDS011;60933;46.398;-63.798;2022-12-29T03:40:55;4.97;;;0.93;;
66702;SDS011;60933;46.398;-63.798;2022-12-29T03:43:23;1.08;;;0.40;;
66702;SDS011;60933;46.398;-63.798;2022-12-29T03:45:51;2.65;;;0.50;;
66702;SDS011;60933;46.398;-63.798;2022-12-29T03:48:17;1.90;;;0.60;;
66702;SDS011;60933;46.398;-63.798;2022-12-29T03:50:43;3.72;;;0.50;;
66702;SDS011;60933;46.398;-63.798;2022-12-29T03:53:09;3.75;;;0.68;;
66702;SDS011;60933;46.398;-63.798;2022-12-29T03:55:35;1.38;;;0.50;;
66702;SDS011;60933;46.398;-63.798;2022-12-29T03:58:01;2.13;;;0.63;;
66702;SDS011;60933;46.398;-63.798;2022-12-29T04:00:27;1.35;;;0.40;;
66702;SDS011;60933;46.398;-63.798;2022-12-29T04:02:53;2.30;;;0.60;;
66702;SDS011;60933;46.398;-63.798;2022-12-29T04:05:20;1.80;;;0.40;;
66702;SDS011;60933;46.398;-63.798;2022-12-29T04:07:46;1.50;;;0.50;;
66702;SDS011;60933;46.398;-63.798;2022-12-29T04:12:38;1.02;;;0.50;;
66702;SDS011;60933;46.398;-63.798;2022-12-29T04:15:04;5.90;;;0.73;;
66702;SDS011;60933;46.398;-63.798;2022-12-29T04:17:30;7.13;;;1.73;;
66702;SDS011;60933;46.398;-63.798;2022-12-29T04:19:56;6.28;;;1.33;;
66702;SDS011;60933;46.398;-63.798;2022-12-29T04:22:42;12.45;;;1.60;;
66702;SDS011;60933;46.398;-63.798;2022-12-29T04:25:08;3.92;;;1.52;;
66702;SDS011;60933;46.398;-63.798;2022-12-29T04:27:34;1.88;;;0.57;;
66702;SDS011;60933;46.398;-63.798;2022-12-29T04:30:01;5.55;;;1.52;;
66702;SDS011;60933;46.398;-63.798;2022-12-29T04:32:27;2.55;;;0.70;;
66702;SDS011;60933;46.398;-63.798;2022-12-29T04:34:53;1.60;;;0.80;;
66702;SDS011;60933;46.398;-63.798;2022-12-29T04:37:19;4.88;;;1.05;;
66702;SDS011;60933;46.398;-63.798;2022-12-29T04:39:45;7.30;;;1.00;;
66702;SDS011;60933;46.398;-63.798;2022-12-29T04:42:11;4.80;;;0.88;;
66702;SDS011;60933;46.398;-63.798;2022-12-29T04:44:37;4.20;;;0.88;;
66702;SDS011;60933;46.398;-63.798;2022-12-29T04:47:03;4.35;;;0.90;;
66702;SDS011;60933;46.398;-63.798;2022-12-29T04:49:31;11.40;;;1.70;;
66702;SDS011;60933;46.398;-63.798;2022-12-29T04:51:57;4.68;;;1.13;;
66702;SDS011;60933;46.398;-63.798;2022-12-29T04:54:23;5.25;;;0.90;;
66702;SDS011;60933;46.398;-63.798;2022-12-29T04:59:15;3.65;;;0.75;;
66702;SDS011;60933;46.398;-63.798;2022-12-29T05:01:41;7.07;;;1.42;;
66702;SDS011;60933;46.398;-63.798;2022-12-29T05:06:33;2.42;;;0.85;;
66702;SDS011;60933;46.398;-63.798;2022-12-29T05:08:59;2.53;;;0.90;;
66702;SDS011;60933;46.398;-63.798;2022-12-29T05:13:51;2.92;;;0.70;;
66702;SDS011;60933;46.398;-63.798;2022-12-29T05:16:17;2.97;;;0.80;;
66702;SDS011;60933;46.398;-63.798;2022-12-29T05:18:43;2.05;;;0.75;;
66702;SDS011;60933;46.398;-63.798;2022-12-29T05:21:09;5.68;;;1.02;;
66702;SDS011;60933;46.398;-63.798;2022-12-29T05:23:35;2.72;;;0.93;;
66702;SDS011;60933;46.398;-63.798;2022-12-29T05:26:01;1.55;;;0.80;;
66702;SDS011;60933;46.398;-63.798;2022-12-29T05:28:27;2.55;;;0.80;;
66702;SDS011;60933;46.398;-63.798;2022-12-29T05:30:53;1.35;;;0.80;;
66702;SDS011;60933;46.398;-63.798;2022-12-29T05:33:19;1.77;;;0.85;;
66702;SDS011;60933;46.398;-63.798;2022-12-29T05:38:11;1.40;;;0.57;;
66702;SDS011;60933;46.398;-63.798;2022-12-29T05:43:02;1.25;;;0.70;;
66702;SDS011;60933;46.398;-63.798;2022-12-29T05:45:28;1.85;;;0.70;;
66702;SDS011;60933;46.398;-63.798;2022-12-29T05:47:54;3.40;;;1.15;;
66702;SDS011;60933;46.398;-63.798;2022-12-29T05:50:20;2.25;;;0.90;;
66702;SDS011;60933;46.398;-63.798;2022-12-29T05:52:47;2.03;;;0.82;;
66702;SDS011;60933;46.398;-63.798;2022-12-29T05:55:13;3.15;;;0.93;;
66702;SDS011;60933;46.398;-63.798;2022-12-29T05:57:39;2.10;;;0.95;;
66702;SDS011;60933;46.398;-63.798;2022-12-29T06:00:06;2.85;;;1.13;;
66702;SDS011;60933;46.398;-63.798;2022-12-29T06:02:33;1.65;;;0.77;;
66702;SDS011;60933;46.398;-63.798;2022-12-29T06:04:59;3.75;;;1.50;;
66702;SDS011;60933;46.398;-63.798;2022-12-29T06:07:25;3.22;;;0.93;;
66702;SDS011;60933;46.398;-63.798;2022-12-29T06:09:51;3.05;;;1.00;;
66702;SDS011;60933;46.398;-63.798;2022-12-29T06:12:17;1.38;;;0.90;;
66702;SDS011;60933;46.398;-63.798;2022-12-29T06:14:43;1.40;;;0.70;;
66702;SDS011;60933;46.398;-63.798;2022-12-29T06:17:09;2.05;;;1.00;;
66702;SDS011;60933;46.398;-63.798;2022-12-29T06:19:35;3.83;;;1.20;;
66702;SDS011;60933;46.398;-63.798;2022-12-29T06:22:01;4.25;;;1.08;;
66702;SDS011;60933;46.398;-63.798;2022-12-29T06:24:27;1.90;;;0.93;;
66702;SDS011;60933;46.398;-63.798;2022-12-29T06:26:53;2.42;;;1.27;;
66702;SDS011;60933;46.398;-63.798;2022-12-29T06:29:19;2.15;;;1.13;;
66702;SDS011;60933;46.398;-63.798;2022-12-29T06:31:45;2.47;;;1.02;;
66702;SDS011;60933;46.398;-63.798;2022-12-29T06:34:12;2.53;;;1.10;;
66702;SDS011;60933;46.398;-63.798;2022-12-29T06:36:38;3.38;;;1.00;;
66702;SDS011;60933;46.398;-63.798;2022-12-29T06:39:05;1.65;;;1.00;;
66702;SDS011;60933;46.398;-63.798;2022-12-29T06:41:31;2.75;;;1.30;;
66702;SDS011;60933;46.398;-63.798;2022-12-29T06:43:57;2.83;;;1.13;;
66702;SDS011;60933;46.398;-63.798;2022-12-29T06:46:23;5.72;;;1.27;;
66702;SDS011;60933;46.398;-63.798;2022-12-29T06:51:14;2.08;;;1.13;;
66702;SDS011;60933;46.398;-63.798;2022-12-29T06:53:40;2.58;;;1.02;;
66702;SDS011;60933;46.398;-63.798;2022-12-29T06:56:07;2.88;;;1.40;;
66702;SDS011;60933;46.398;-63.798;2022-12-29T06:58:33;2.75;;;1.10;;
66702;SDS011;60933;46.398;-63.798;2022-12-29T07:00:59;2.15;;;0.95;;
66702;SDS011;60933;46.398;-63.798;2022-12-29T07:03:25;2.38;;;0.93;;
66702;SDS011;60933;46.398;-63.798;2022-12-29T07:05:51;2.78;;;1.25;;
66702;SDS011;60933;46.398;-63.798;2022-12-29T07:08:17;3.38;;;0.88;;
66702;SDS011;60933;46.398;-63.798;2022-12-29T07:10:43;3.33;;;1.55;;
66702;SDS011;60933;46.398;-63.798;2022-12-29T07:15:38;2.88;;;1.15;;
66702;SDS011;60933;46.398;-63.798;2022-12-29T07:18:04;2.35;;;0.82;;
66702;SDS011;60933;46.398;-63.798;2022-12-29T07:20:30;2.03;;;1.00;;
66702;SDS011;60933;46.398;-63.798;2022-12-29T07:22:57;2.00;;;0.95;;
66702;SDS011;60933;46.398;-63.798;2022-12-29T07:25:23;3.13;;;1.73;;
66702;SDS011;60933;46.398;-63.798;2022-12-29T07:27:49;2.13;;;1.00;;
66702;SDS011;60933;46.398;-63.798;2022-12-29T07:30:15;2.40;;;1.15;;
66702;SDS011;60933;46.398;-63.798;2022-12-29T07:32:42;3.70;;;0.90;;
66702;SDS011;60933;46.398;-63.798;2022-12-29T07:35:08;4.18;;;1.50;;
66702;SDS011;60933;46.398;-63.798;2022-12-29T07:37:34;3.63;;;1.55;;
66702;SDS011;60933;46.398;-63.798;2022-12-29T07:40:01;2.40;;;1.02;;
66702;SDS011;60933;46.398;-63.798;2022-12-29T07:42:28;5.55;;;1.85;;
66702;SDS011;60933;46.398;-63.798;2022-12-29T07:44:54;4.43;;;1.50;;
66702;SDS011;60933;46.398;-63.798;2022-12-29T07:47:20;3.40;;;1.27;;
66702;SDS011;60933;46.398;-63.798;2022-12-29T07:49:46;2.92;;;1.15;;
66702;SDS011;60933;46.398;-63.798;2022-12-29T07:52:12;2.85;;;1.33;;
66702;SDS011;60933;46.398;-63.798;2022-12-29T07:54:38;4.50;;;1.23;;
66702;SDS011;60933;46.398;-63.798;2022-12-29T07:57:05;1.95;;;1.20;;
66702;SDS011;60933;46.398;-63.798;2022-12-29T07:59:31;2.72;;;1.25;;
66702;SDS011;60933;46.398;-63.798;2022-12-29T08:04:23;2.08;;;1.10;;
66702;SDS011;60933;46.398;-63.798;2022-12-29T08:06:49;3.50;;;1.63;;
66702;SDS011;60933;46.398;-63.798;2022-12-29T08:11:41;1.88;;;1.05;;
66702;SDS011;60933;46.398;-63.798;2022-12-29T08:14:08;4.75;;;1.60;;
66702;SDS011;60933;46.398;-63.798;2022-12-29T08:19:00;3.13;;;1.42;;
66702;SDS011;60933;46.398;-63.798;2022-12-29T08:21:28;2.33;;;1.05;;
66702;SDS011;60933;46.398;-63.798;2022-12-29T08:23:55;2.78;;;1.15;;
66702;SDS011;60933;46.398;-63.798;2022-12-29T08:26:21;1.42;;;0.93;;
66702;SDS011;60933;46.398;-63.798;2022-12-29T08:28:47;3.00;;;1.33;;
66702;SDS011;60933;46.398;-63.798;2022-12-29T08:31:13;3.42;;;1.48;;
66702;SDS011;60933;46.398;-63.798;2022-12-29T08:33:39;3.38;;;1.27;;
66702;SDS011;60933;46.398;-63.798;2022-12-29T08:36:05;2.33;;;1.10;;
66702;SDS011;60933;46.398;-63.798;2022-12-29T08:38:32;5.15;;;1.70;;
66702;SDS011;60933;46.398;-63.798;2022-12-29T08:40:58;2.63;;;1.50;;
66702;SDS011;60933;46.398;-63.798;2022-12-29T08:43:27;5.18;;;2.13;;
66702;SDS011;60933;46.398;-63.798;2022-12-29T08:45:53;2.47;;;1.00;;
66702;SDS011;60933;46.398;-63.798;2022-12-29T08:48:19;5.65;;;1.90;;
66702;SDS011;60933;46.398;-63.798;2022-12-29T08:50:47;3.72;;;1.55;;
66702;SDS011;60933;46.398;-63.798;2022-12-29T08:53:15;4.47;;;1.50;;
66702;SDS011;60933;46.398;-63.798;2022-12-29T08:55:47;3.53;;;1.60;;
66702;SDS011;60933;46.398;-63.798;2022-12-29T08:58:21;3.85;;;1.40;;
66702;SDS011;60933;46.398;-63.798;2022-12-29T09:00:47;4.63;;;1.40;;
66702;SDS011;60933;46.398;-63.798;2022-12-29T09:03:13;3.97;;;1.50;;
66702;SDS011;60933;46.398;-63.798;2022-12-29T09:05:39;3.17;;;1.25;;
66702;SDS011;60933;46.398;-63.798;2022-12-29T09:08:05;7.93;;;1.67;;
66702;SDS011;60933;46.398;-63.798;2022-12-29T09:10:31;3.75;;;1.15;;
66702;SDS011;60933;46.398;-63.798;2022-12-29T09:12:57;4.18;;;1.13;;
66702;SDS011;60933;46.398;-63.798;2022-12-29T09:15:23;3.15;;;1.30;;
66702;SDS011;60933;46.398;-63.798;2022-12-29T09:17:49;4.85;;;1.48;;
66702;SDS011;60933;46.398;-63.798;2022-12-29T09:20:16;3.40;;;1.20;;
66702;SDS011;60933;46.398;-63.798;2022-12-29T09:22:44;5.72;;;1.60;;
66702;SDS011;60933;46.398;-63.798;2022-12-29T09:25:12;3.22;;;1.38;;
66702;SDS011;60933;46.398;-63.798;2022-12-29T09:27:38;2.80;;;1.13;;
66702;SDS011;60933;46.398;-63.798;2022-12-29T09:30:06;6.30;;;1.75;;
66702;SDS011;60933;46.398;-63.798;2022-12-29T09:32:35;4.38;;;2.47;;
66702;SDS011;60933;46.398;-63.798;2022-12-29T09:35:02;5.20;;;1.98;;
66702;SDS011;60933;46.398;-63.798;2022-12-29T09:37:28;3.63;;;1.80;;
66702;SDS011;60933;46.398;-63.798;2022-12-29T09:39:54;3.80;;;1.50;;
66702;SDS011;60933;46.398;-63.798;2022-12-29T09:47:45;4.75;;;1.30;;
66702;SDS011;60933;46.398;-63.798;2022-12-29T09:55:40;1.88;;;1.20;;
66702;SDS011;60933;46.398;-63.798;2022-12-29T09:58:16;3.08;;;1.45;;
66702;SDS011;60933;46.398;-63.798;2022-12-29T10:00:54;2.60;;;1.00;;
66702;SDS011;60933;46.398;-63.798;2022-12-29T10:03:27;2.75;;;1.17;;
66702;SDS011;60933;46.398;-63.798;2022-12-29T10:09:31;3.40;;;1.17;;
66702;SDS011;60933;46.398;-63.798;2022-12-29T10:12:11;1.60;;;0.68;;
66702;SDS011;60933;46.398;-63.798;2022-12-29T10:20:26;5.35;;;1.58;;
66702;SDS011;60933;46.398;-63.798;2022-12-29T10:25:45;1.58;;;1.08;;
66702;SDS011;60933;46.398;-63.798;2022-12-29T10:28:31;1.70;;;1.10;;
66702;SDS011;60933;46.398;-63.798;2022-12-29T10:31:09;3.00;;;1.40;;
66702;SDS011;60933;46.398;-63.798;2022-12-29T10:33:42;3.15;;;1.17;;
66702;SDS011;60933;46.398;-63.798;2022-12-29T10:36:24;2.40;;;1.10;;
66702;SDS011;60933;46.398;-63.798;2022-12-29T10:39:05;3.15;;;1.33;;
66702;SDS011;60933;46.398;-63.798;2022-12-29T10:41:39;3.88;;;1.65;;
66702;SDS011;60933;46.398;-63.798;2022-12-29T10:44:14;3.03;;;1.65;;
66702;SDS011;60933;46.398;-63.798;2022-12-29T10:46:43;3.78;;;2.10;;
66702;SDS011;60933;46.398;-63.798;2022-12-29T10:49:16;4.93;;;1.40;;
66702;SDS011;60933;46.398;-63.798;2022-12-29T10:51:44;3.60;;;1.55;;
66702;SDS011;60933;46.398;-63.798;2022-12-29T10:54:21;2.90;;;1.13;;
66702;SDS011;60933;46.398;-63.798;2022-12-29T10:59:26;3.35;;;1.02;;
66702;SDS011;60933;46.398;-63.798;2022-12-29T11:07:16;3.50;;;1.25;;
66702;SDS011;60933;46.398;-63.798;2022-12-29T11:09:44;2.50;;;1.75;;
66702;SDS011;60933;46.398;-63.798;2022-12-29T11:12:23;2.95;;;1.63;;
66702;SDS011;60933;46.398;-63.798;2022-12-29T11:15:01;5.45;;;1.80;;
66702;SDS011;60933;46.398;-63.798;2022-12-29T11:17:50;2.85;;;1.23;;
66702;SDS011;60933;46.398;-63.798;2022-12-29T11:22:58;2.70;;;1.30;;
66702;SDS011;60933;46.398;-63.798;2022-12-29T11:25:26;2.58;;;1.38;;
66702;SDS011;60933;46.398;-63.798;2022-12-29T11:28:00;3.22;;;1.58;;
66702;SDS011;60933;46.398;-63.798;2022-12-29T11:30:30;3.40;;;1.67;;
66702;SDS011;60933;46.398;-63.798;2022-12-29T11:32:57;6.50;;;2.30;;
66702;SDS011;60933;46.398;-63.798;2022-12-29T11:35:38;8.15;;;3.40;;
66702;SDS011;60933;46.398;-63.798;2022-12-29T11:38:20;7.18;;;2.58;;
66702;SDS011;60933;46.398;-63.798;2022-12-29T11:40:50;7.95;;;3.90;;
66702;SDS011;60933;46.398;-63.798;2022-12-29T11:43:22;9.23;;;3.97;;
66702;SDS011;60933;46.398;-63.798;2022-12-29T11:45:58;8.65;;;2.78;;
66702;SDS011;60933;46.398;-63.798;2022-12-29T11:48:28;6.32;;;3.00;;
66702;SDS011;60933;46.398;-63.798;2022-12-29T11:50:58;5.43;;;2.08;;
66702;SDS011;60933;46.398;-63.798;2022-12-29T11:53:31;3.60;;;1.70;;
66702;SDS011;60933;46.398;-63.798;2022-12-29T11:56:16;6.97;;;2.50;;
66702;SDS011;60933;46.398;-63.798;2022-12-29T11:58:45;6.05;;;2.50;;
66702;SDS011;60933;46.398;-63.798;2022-12-29T12:01:19;6.90;;;3.20;;
66702;SDS011;60933;46.398;-63.798;2022-12-29T12:04:00;8.25;;;2.20;;
66702;SDS011;60933;46.398;-63.798;2022-12-29T12:06:27;9.95;;;3.40;;
66702;SDS011;60933;46.398;-63.798;2022-12-29T12:08:55;6.65;;;2.80;;
66702;SDS011;60933;46.398;-63.798;2022-12-29T12:11:28;4.68;;;1.88;;
66702;SDS011;60933;46.398;-63.798;2022-12-29T12:14:02;5.15;;;2.10;;
66702;SDS011;60933;46.398;-63.798;2022-12-29T12:16:34;4.70;;;2.00;;
66702;SDS011;60933;46.398;-63.798;2022-12-29T12:21:41;4.40;;;1.80;;
66702;SDS011;60933;46.398;-63.798;2022-12-29T12:26:59;6.60;;;2.05;;
66702;SDS011;60933;46.398;-63.798;2022-12-29T12:34:37;8.77;;;3.63;;
66702;SDS011;60933;46.398;-63.798;2022-12-29T12:42:58;3.65;;;1.77;;
66702;SDS011;60933;46.398;-63.798;2022-12-29T13:07:55;7.30;;;1.90;;
66702;SDS011;60933;46.398;-63.798;2022-12-29T13:10:48;5.95;;;1.70;;
66702;SDS011;60933;46.398;-63.798;2022-12-29T13:24:32;7.28;;;1.73;;
66702;SDS011;60933;46.398;-63.798;2022-12-29T13:27:34;3.60;;;1.63;;
66702;SDS011;60933;46.398;-63.798;2022-12-29T13:30:10;8.02;;;1.58;;
66702;SDS011;60933;46.398;-63.798;2022-12-29T13:38:25;3.40;;;1.20;;
66702;SDS011;60933;46.398;-63.798;2022-12-29T13:41:12;2.05;;;1.02;;
66702;SDS011;60933;46.398;-63.798;2022-12-29T13:44:02;3.75;;;1.33;;
66702;SDS011;60933;46.398;-63.798;2022-12-29T13:46:39;2.22;;;1.33;;
66702;SDS011;60933;46.398;-63.798;2022-12-29T13:49:18;3.97;;;1.13;;
66702;SDS011;60933;46.398;-63.798;2022-12-29T13:51:53;3.42;;;1.00;;
66702;SDS011;60933;46.398;-63.798;2022-12-29T13:54:28;2.20;;;1.30;;
66702;SDS011;60933;46.398;-63.798;2022-12-29T13:57:12;2.95;;;0.60;;
66702;SDS011;60933;46.398;-63.798;2022-12-29T14:00:11;4.68;;;1.20;;
66702;SDS011;60933;46.398;-63.798;2022-12-29T14:07:44;1.83;;;0.90;;
66702;SDS011;60933;46.398;-63.798;2022-12-29T14:10:45;2.92;;;1.08;;
66702;SDS011;60933;46.398;-63.798;2022-12-29T14:13:12;1.90;;;0.90;;
66702;SDS011;60933;46.398;-63.798;2022-12-29T14:15:45;3.88;;;1.15;;
66702;SDS011;60933;46.398;-63.798;2022-12-29T14:18:25;2.30;;;0.80;;
66702;SDS011;60933;46.398;-63.798;2022-12-29T14:21:05;5.68;;;1.42;;
66702;SDS011;60933;46.398;-63.798;2022-12-29T14:23:44;2.15;;;1.10;;
66702;SDS011;60933;46.398;-63.798;2022-12-29T14:26:13;3.13;;;1.20;;
66702;SDS011;60933;46.398;-63.798;2022-12-29T14:28:42;2.25;;;0.70;;
66702;SDS011;60933;46.398;-63.798;2022-12-29T14:36:35;3.40;;;1.35;;
66702;SDS011;60933;46.398;-63.798;2022-12-29T14:39:30;4.55;;;1.20;;
66702;SDS011;60933;46.398;-63.798;2022-12-29T14:44:48;2.83;;;0.85;;
66702;SDS011;60933;46.398;-63.798;2022-12-29T14:50:02;3.15;;;0.90;;
66702;SDS011;60933;46.398;-63.798;2022-12-29T14:52:33;1.10;;;0.60;;
66702;SDS011;60933;46.398;-63.798;2022-12-29T15:00:53;2.40;;;0.82;;
66702;SDS011;60933;46.398;-63.798;2022-12-29T15:03:24;2.00;;;0.90;;
66702;SDS011;60933;46.398;-63.798;2022-12-29T15:06:11;3.67;;;0.93;;
66702;SDS011;60933;46.398;-63.798;2022-12-29T15:08:46;1.70;;;0.82;;
66702;SDS011;60933;46.398;-63.798;2022-12-29T15:11:41;2.53;;;0.70;;
66702;SDS011;60933;46.398;-63.798;2022-12-29T15:14:32;2.78;;;0.68;;
66702;SDS011;60933;46.398;-63.798;2022-12-29T15:17:09;4.28;;;0.90;;
66702;SDS011;60933;46.398;-63.798;2022-12-29T15:19:47;1.08;;;0.60;;
66702;SDS011;60933;46.398;-63.798;2022-12-29T15:24:43;2.80;;;0.60;;
66702;SDS011;60933;46.398;-63.798;2022-12-29T15:27:10;2.30;;;0.73;;
66702;SDS011;60933;46.398;-63.798;2022-12-29T15:29:42;1.70;;;1.02;;
66702;SDS011;60933;46.398;-63.798;2022-12-29T15:34:45;1.95;;;1.13;;
66702;SDS011;60933;46.398;-63.798;2022-12-29T15:37:32;2.00;;;0.52;;
66702;SDS011;60933;46.398;-63.798;2022-12-29T15:40:03;3.38;;;0.80;;
66702;SDS011;60933;46.398;-63.798;2022-12-29T15:45:25;2.08;;;0.85;;
66702;SDS011;60933;46.398;-63.798;2022-12-29T15:47:55;2.03;;;0.73;;
66702;SDS011;60933;46.398;-63.798;2022-12-29T15:52:50;2.10;;;0.80;;
66702;SDS011;60933;46.398;-63.798;2022-12-29T15:55:33;3.53;;;1.10;;
66702;SDS011;60933;46.398;-63.798;2022-12-29T15:58:02;2.58;;;0.68;;
66702;SDS011;60933;46.398;-63.798;2022-12-29T16:00:31;1.60;;;0.60;;
66702;SDS011;60933;46.398;-63.798;2022-12-29T16:03:04;2.00;;;0.63;;
66702;SDS011;60933;46.398;-63.798;2022-12-29T16:05:38;1.40;;;0.65;;
66702;SDS011;60933;46.398;-63.798;2022-12-29T16:11:21;1.95;;;0.88;;
66702;SDS011;60933;46.398;-63.798;2022-12-29T16:13:52;1.33;;;0.57;;
66702;SDS011;60933;46.398;-63.798;2022-12-29T16:16:38;1.52;;;0.60;;
66702;SDS011;60933;46.398;-63.798;2022-12-29T16:19:28;2.15;;;0.75;;
66702;SDS011;60933;46.398;-63.798;2022-12-29T16:21:58;1.13;;;0.50;;
66702;SDS011;60933;46.398;-63.798;2022-12-29T16:24:29;1.75;;;1.00;;
66702;SDS011;60933;46.398;-63.798;2022-12-29T16:29:31;1.23;;;0.60;;
66702;SDS011;60933;46.398;-63.798;2022-12-29T16:31:58;1.70;;;1.05;;
66702;SDS011;60933;46.398;-63.798;2022-12-29T16:34:29;1.30;;;0.77;;
66702;SDS011;60933;46.398;-63.798;2022-12-29T16:37:01;1.90;;;1.13;;
66702;SDS011;60933;46.398;-63.798;2022-12-29T16:39:47;4.25;;;1.00;;
66702;SDS011;60933;46.398;-63.798;2022-12-29T16:48:10;1.17;;;0.65;;
66702;SDS011;60933;46.398;-63.798;2022-12-29T16:51:06;1.83;;;0.73;;
66702;SDS011;60933;46.398;-63.798;2022-12-29T16:53:50;1.60;;;0.73;;
66702;SDS011;60933;46.398;-63.798;2022-12-29T16:56:22;1.42;;;0.50;;
66702;SDS011;60933;46.398;-63.798;2022-12-29T16:58:51;1.00;;;0.60;;
66702;SDS011;60933;46.398;-63.798;2022-12-29T17:01:27;1.25;;;0.80;;
66702;SDS011;60933;46.398;-63.798;2022-12-29T17:03:54;1.20;;;0.80;;
66702;SDS011;60933;46.398;-63.798;2022-12-29T17:06:25;1.67;;;0.57;;
66702;SDS011;60933;46.398;-63.798;2022-12-29T17:08:51;3.88;;;0.80;;
66702;SDS011;60933;46.398;-63.798;2022-12-29T17:14:50;2.60;;;0.50;;
66702;SDS011;60933;46.398;-63.798;2022-12-29T17:16:58;2.97;;;0.85;;
66702;SDS011;60933;46.398;-63.798;2022-12-29T17:19:35;2.25;;;0.68;;
66702;SDS011;60933;46.398;-63.798;2022-12-29T17:22:04;1.35;;;0.70;;
66702;SDS011;60933;46.398;-63.798;2022-12-29T17:24:37;4.80;;;0.70;;
66702;SDS011;60933;46.398;-63.798;2022-12-29T17:27:03;2.78;;;0.70;;
66702;SDS011;60933;46.398;-63.798;2022-12-29T17:32:01;1.17;;;0.50;;
66702;SDS011;60933;46.398;-63.798;2022-12-29T17:34:30;1.38;;;0.70;;
66702;SDS011;60933;46.398;-63.798;2022-12-29T17:36:57;3.65;;;0.80;;
66702;SDS011;60933;46.398;-63.798;2022-12-29T17:39:23;0.60;;;0.40;;
66702;SDS011;60933;46.398;-63.798;2022-12-29T17:44:15;0.75;;;0.45;;
66702;SDS011;60933;46.398;-63.798;2022-12-29T17:46:43;1.67;;;0.70;;
66702;SDS011;60933;46.398;-63.798;2022-12-29T17:49:14;1.83;;;0.70;;
66702;SDS011;60933;46.398;-63.798;2022-12-29T17:51:43;3.40;;;0.77;;
66702;SDS011;60933;46.398;-63.798;2022-12-29T17:54:20;1.20;;;0.60;;
66702;SDS011;60933;46.398;-63.798;2022-12-29T17:56:49;2.10;;;0.50;;
66702;SDS011;60933;46.398;-63.798;2022-12-29T17:59:16;1.80;;;0.52;;
66702;SDS011;60933;46.398;-63.798;2022-12-29T18:01:43;4.20;;;0.68;;
66702;SDS011;60933;46.398;-63.798;2022-12-29T18:04:12;2.30;;;0.93;;
66702;SDS011;60933;46.398;-63.798;2022-12-29T18:06:40;1.15;;;0.50;;
66702;SDS011;60933;46.398;-63.798;2022-12-29T18:09:07;2.40;;;0.82;;
66702;SDS011;60933;46.398;-63.798;2022-12-29T18:11:35;1.95;;;1.13;;